Time,TemperatureF,DewpointF,PressureIn,WindDirection,WindDirectionDegrees,WindSpeedMPH,WindSpeedGustMPH,Humidity,HourlyPrecipIn,Conditions,Clouds,dailyrainin,SoftwareType,DateUTC
2013-05-24 00:04:00,42.8,38.9,30.26,ENE,66,3.0,4.0,86,0.00,,,0.00,Wunderground v.1.15,2013-05-24 05:04:00,
2013-05-24 00:10:00,42.5,38.6,30.27,ENE,66,1.0,1.0,86,0.00,,,0.00,Wunderground v.1.15,2013-05-24 05:10:00,
2013-05-24 00:16:00,42.3,38.4,30.27,ENE,66,0.0,1.0,86,0.00,,,0.00,Wunderground v.1.15,2013-05-24 05:16:00,
2013-05-24 00:22:00,42.1,38.5,30.27,ENE,66,0.0,0.0,87,0.00,,,0.00,Wunderground v.1.15,2013-05-24 05:22:00,
2013-05-24 00:28:00,41.9,38.3,30.27,ENE,66,0.0,0.0,87,0.00,,,0.00,Wunderground v.1.15,2013-05-24 05:28:00,
2013-05-24 00:34:00,41.7,38.1,30.27,ENE,66,0.0,0.0,87,0.00,,,0.00,Wunderground v.1.15,2013-05-24 05:34:00,
2013-05-24 00:40:00,41.6,38.3,30.27,ENE,66,0.0,0.0,88,0.00,,,0.00,Wunderground v.1.15,2013-05-24 05:40:00,
2013-05-24 00:46:00,41.4,37.8,30.28,ENE,66,0.0,0.0,87,0.00,,,0.00,Wunderground v.1.15,2013-05-24 05:46:00,
2013-05-24 00:52:00,41.1,37.8,30.28,ENE,66,0.0,0.0,88,0.00,,,0.00,Wunderground v.1.15,2013-05-24 05:52:00,
2013-05-24 00:58:00,40.9,37.6,30.28,ENE,66,0.0,0.0,88,0.00,,,0.00,Wunderground v.1.15,2013-05-24 05:58:00,
2013-05-24 01:04:00,40.9,37.6,30.28,ENE,63,0.0,5.0,88,0.00,,,0.00,Wunderground v.1.15,2013-05-24 06:04:00,
2013-05-24 01:10:00,41.0,37.4,30.28,NE,52,3.0,7.0,87,0.00,,,0.00,Wunderground v.1.15,2013-05-24 06:10:00,
2013-05-24 01:16:00,41.3,37.1,30.28,NE,43,5.0,7.0,85,0.00,,,0.00,Wunderground v.1.15,2013-05-24 06:16:00,
2013-05-24 01:22:00,41.4,36.6,30.28,NE,49,7.0,10.0,83,0.00,,,0.00,Wunderground v.1.15,2013-05-24 06:22:00,
2013-05-24 01:28:00,41.3,36.8,30.28,NE,53,7.0,10.0,84,0.00,,,0.00,Wunderground v.1.15,2013-05-24 06:28:00,
2013-05-24 01:34:00,41.0,36.5,30.28,NE,47,6.0,7.0,84,0.00,,,0.00,Wunderground v.1.15,2013-05-24 06:34:00,
2013-05-24 01:40:00,41.0,36.2,30.28,NE,47,6.0,6.0,83,0.00,,,0.00,Wunderground v.1.15,2013-05-24 06:40:00,
2013-05-24 01:46:00,41.1,36.0,30.28,NE,51,8.0,10.0,82,0.00,,,0.00,Wunderground v.1.15,2013-05-24 06:46:00,
2013-05-24 01:52:00,40.9,35.8,30.28,NE,50,8.0,8.0,82,0.00,,,0.00,Wunderground v.1.15,2013-05-24 06:52:00,
2013-05-24 01:58:00,40.7,35.9,30.28,NE,49,6.0,8.0,83,0.00,,,0.00,Wunderground v.1.15,2013-05-24 06:58:00,
2013-05-24 02:04:00,40.5,36.0,30.29,NE,49,2.0,4.0,84,0.00,,,0.00,Wunderground v.1.15,2013-05-24 07:04:00,
2013-05-24 02:10:00,40.4,35.9,30.29,NE,49,0.0,0.0,84,0.00,,,0.00,Wunderground v.1.15,2013-05-24 07:10:00,
2013-05-24 02:16:00,40.1,35.7,30.30,NE,49,0.0,0.0,84,0.00,,,0.00,Wunderground v.1.15,2013-05-24 07:16:00,
2013-05-24 02:22:00,39.9,35.2,30.30,NE,49,0.0,0.0,83,0.00,,,0.00,Wunderground v.1.15,2013-05-24 07:22:00,
2013-05-24 02:28:00,39.8,35.1,30.30,NE,49,0.0,0.0,83,0.00,,,0.00,Wunderground v.1.15,2013-05-24 07:28:00,
2013-05-24 02:34:00,39.7,35.3,30.30,NE,49,0.0,0.0,84,0.00,,,0.00,Wunderground v.1.15,2013-05-24 07:34:00,
2013-05-24 02:40:00,39.5,35.1,30.31,NE,49,0.0,0.0,84,0.00,,,0.00,Wunderground v.1.15,2013-05-24 07:40:00,
2013-05-24 02:46:00,39.3,34.9,30.31,NE,49,0.0,0.0,84,0.00,,,0.00,Wunderground v.1.15,2013-05-24 07:46:00,
2013-05-24 02:52:00,39.2,35.1,30.31,NE,49,0.0,0.0,85,0.00,,,0.00,Wunderground v.1.15,2013-05-24 07:52:00,
2013-05-24 02:58:00,39.1,35.0,30.31,NE,49,0.0,0.0,85,0.00,,,0.00,Wunderground v.1.15,2013-05-24 07:58:00,
2013-05-24 03:04:00,39.1,35.0,30.32,NE,49,0.0,0.0,85,0.00,,,0.00,Wunderground v.1.15,2013-05-24 08:04:00,
2013-05-24 03:10:00,39.1,35.0,30.32,NE,49,0.0,0.0,85,0.00,,,0.00,Wunderground v.1.15,2013-05-24 08:10:00,
2013-05-24 03:16:00,38.9,34.8,30.32,NE,49,0.0,0.0,85,0.00,,,0.00,Wunderground v.1.15,2013-05-24 08:16:00,
2013-05-24 03:22:00,38.8,34.7,30.32,NE,49,0.0,0.0,85,0.00,,,0.00,Wunderground v.1.15,2013-05-24 08:22:00,
2013-05-24 03:28:00,38.6,34.5,30.33,NE,48,0.0,0.0,85,0.00,,,0.00,Wunderground v.1.15,2013-05-24 08:28:00,
2013-05-24 03:34:00,38.6,34.8,30.33,NNW,347,0.0,0.0,86,0.00,,,0.00,Wunderground v.1.15,2013-05-24 08:34:00,
2013-05-24 03:40:00,38.5,34.7,30.32,NNW,338,0.0,0.0,86,0.00,,,0.00,Wunderground v.1.15,2013-05-24 08:40:00,
2013-05-24 03:46:00,38.4,34.9,30.32,NNW,338,0.0,0.0,87,0.00,,,0.00,Wunderground v.1.15,2013-05-24 08:46:00,
2013-05-24 03:52:00,38.2,34.7,30.32,NNW,338,0.0,0.0,87,0.00,,,0.00,Wunderground v.1.15,2013-05-24 08:52:00,
2013-05-24 03:58:00,38.0,34.8,30.33,NNW,338,0.0,0.0,88,0.00,,,0.00,Wunderground v.1.15,2013-05-24 08:58:00,
2013-05-24 04:04:00,38.0,34.8,30.33,NNW,338,0.0,0.0,88,0.00,,,0.00,Wunderground v.1.15,2013-05-24 09:04:00,
2013-05-24 04:10:00,37.9,34.7,30.33,NNW,338,0.0,0.0,88,0.00,,,0.00,Wunderground v.1.15,2013-05-24 09:10:00,
2013-05-24 04:16:00,37.8,34.6,30.32,NNW,338,0.0,0.0,88,0.00,,,0.00,Wunderground v.1.15,2013-05-24 09:16:00,
2013-05-24 04:22:00,37.6,34.4,30.33,NNW,338,0.0,0.0,88,0.00,,,0.00,Wunderground v.1.15,2013-05-24 09:22:00,
2013-05-24 04:28:00,37.5,34.6,30.32,NNW,338,0.0,0.0,89,0.00,,,0.00,Wunderground v.1.15,2013-05-24 09:28:00,
2013-05-24 04:34:00,37.4,34.5,30.33,NNW,338,0.0,0.0,89,0.00,,,0.00,Wunderground v.1.15,2013-05-24 09:34:00,
2013-05-24 04:40:00,37.3,34.4,30.32,NNW,338,0.0,0.0,89,0.00,,,0.00,Wunderground v.1.15,2013-05-24 09:40:00,
2013-05-24 04:46:00,37.2,34.3,30.32,NNW,338,0.0,0.0,89,0.00,,,0.00,Wunderground v.1.15,2013-05-24 09:46:00,
2013-05-24 04:52:00,37.2,34.3,30.32,NNW,338,0.0,0.0,89,0.00,,,0.00,Wunderground v.1.15,2013-05-24 09:52:00,
2013-05-24 04:58:00,37.2,34.3,30.33,NNW,338,0.0,0.0,89,0.00,,,0.00,Wunderground v.1.15,2013-05-24 09:58:00,
2013-05-24 05:04:00,37.0,34.1,30.33,NNW,338,0.0,0.0,89,0.00,,,0.00,Wunderground v.1.15,2013-05-24 10:04:00,
2013-05-24 05:10:00,37.0,34.1,30.33,NNW,338,0.0,0.0,89,0.00,,,0.00,Wunderground v.1.15,2013-05-24 10:10:00,
2013-05-24 05:16:00,37.0,34.1,30.33,NNW,338,0.0,0.0,89,0.00,,,0.00,Wunderground v.1.15,2013-05-24 10:16:00,
2013-05-24 05:22:00,36.8,33.9,30.33,NNW,338,0.0,0.0,89,0.00,,,0.00,Wunderground v.1.15,2013-05-24 10:22:00,
2013-05-24 05:28:00,36.7,33.8,30.34,NNW,338,0.0,0.0,89,0.00,,,0.00,Wunderground v.1.15,2013-05-24 10:28:00,
2013-05-24 05:34:00,36.6,33.9,30.34,NNW,338,0.0,0.0,90,0.00,,,0.00,Wunderground v.1.15,2013-05-24 10:34:00,
2013-05-24 05:40:00,36.7,34.0,30.34,NNW,338,0.0,0.0,90,0.00,,,0.00,Wunderground v.1.15,2013-05-24 10:40:00,
2013-05-24 05:46:00,36.8,34.1,30.34,NNW,338,0.0,0.0,90,0.00,,,0.00,Wunderground v.1.15,2013-05-24 10:46:00,
2013-05-24 05:52:00,37.1,34.4,30.35,NNW,338,0.0,0.0,90,0.00,,,0.00,Wunderground v.1.15,2013-05-24 10:52:00,
2013-05-24 05:58:00,37.4,34.5,30.35,NNW,338,0.0,0.0,89,0.00,,,0.00,Wunderground v.1.15,2013-05-24 10:58:00,
2013-05-24 06:04:00,37.4,34.5,30.35,NNW,338,0.0,0.0,89,0.00,,,0.00,Wunderground v.1.15,2013-05-24 11:04:00,
2013-05-24 06:10:00,37.3,34.4,30.36,NNW,338,0.0,0.0,89,0.00,,,0.00,Wunderground v.1.15,2013-05-24 11:10:00,
2013-05-24 06:16:00,37.5,34.6,30.37,NNW,338,0.0,0.0,89,0.00,,,0.00,Wunderground v.1.15,2013-05-24 11:16:00,
2013-05-24 06:22:00,37.7,34.8,30.37,NNW,338,0.0,0.0,89,0.00,,,0.00,Wunderground v.1.15,2013-05-24 11:22:00,
2013-05-24 06:28:00,38.0,35.0,30.38,NNW,338,0.0,0.0,89,0.00,,,0.00,Wunderground v.1.15,2013-05-24 11:28:00,
2013-05-24 06:34:00,38.4,35.2,30.38,NNW,338,0.0,0.0,88,0.00,,,0.00,Wunderground v.1.15,2013-05-24 11:34:00,
2013-05-24 06:40:00,38.9,35.4,30.38,NW,312,0.0,2.0,87,0.00,,,0.00,Wunderground v.1.15,2013-05-24 11:40:00,
2013-05-24 06:46:00,39.3,35.8,30.38,WNW,296,1.0,3.0,87,0.00,,,0.00,Wunderground v.1.15,2013-05-24 11:46:00,
2013-05-24 06:52:00,39.7,35.9,30.39,WNW,302,2.0,4.0,86,0.00,,,0.00,Wunderground v.1.15,2013-05-24 11:52:00,
2013-05-24 06:58:00,40.3,36.1,30.39,NNW,342,1.0,4.0,85,0.00,,,0.00,Wunderground v.1.15,2013-05-24 11:58:00,
2013-05-24 07:04:00,40.9,36.4,30.39,NNW,338,1.0,2.0,84,0.00,,,0.00,Wunderground v.1.15,2013-05-24 12:04:00,
2013-05-24 07:10:00,41.4,36.6,30.40,NNW,333,2.0,2.0,83,0.00,,,0.00,Wunderground v.1.15,2013-05-24 12:10:00,
2013-05-24 07:16:00,41.8,36.7,30.40,NNW,331,2.0,2.0,82,0.00,,,0.00,Wunderground v.1.15,2013-05-24 12:16:00,
2013-05-24 07:22:00,42.2,37.1,30.40,NNW,345,2.0,4.0,82,0.00,,,0.00,Wunderground v.1.15,2013-05-24 12:22:00,
2013-05-24 07:28:00,42.5,37.4,30.41,NNW,345,2.0,4.0,82,0.00,,,0.00,Wunderground v.1.15,2013-05-24 12:28:00,
2013-05-24 07:34:00,42.7,37.6,30.41,NW,306,2.0,3.0,82,0.00,,,0.00,Wunderground v.1.15,2013-05-24 12:34:00,
2013-05-24 07:40:00,42.9,37.5,30.41,NNW,339,2.0,3.0,81,0.00,,,0.00,Wunderground v.1.15,2013-05-24 12:40:00,
2013-05-24 07:46:00,43.2,37.4,30.41,NNW,345,2.0,3.0,80,0.00,,,0.00,Wunderground v.1.15,2013-05-24 12:46:00,
2013-05-24 07:52:00,43.6,37.8,30.41,NNW,335,2.0,5.0,80,0.00,,,0.00,Wunderground v.1.15,2013-05-24 12:52:00,
2013-05-24 07:58:00,43.9,37.5,30.42,NNW,331,2.0,5.0,78,0.00,,,0.00,Wunderground v.1.15,2013-05-24 12:58:00,
2013-05-24 08:04:00,44.7,38.3,30.42,NE,43,1.0,4.0,78,0.00,,,0.00,Wunderground v.1.15,2013-05-24 13:04:00,
2013-05-24 08:10:00,45.6,38.5,30.42,NNE,30,1.0,4.0,76,0.00,,,0.00,Wunderground v.1.15,2013-05-24 13:10:00,
2013-05-24 08:16:00,46.0,37.8,30.42,NE,34,1.0,4.0,73,0.00,,,0.00,Wunderground v.1.15,2013-05-24 13:16:00,
2013-05-24 08:22:00,46.5,38.7,30.42,NE,34,1.0,1.0,74,0.00,,,0.00,Wunderground v.1.15,2013-05-24 13:22:00,
2013-05-24 08:28:00,46.8,38.6,30.42,NE,41,1.0,7.0,73,0.00,,,0.00,Wunderground v.1.15,2013-05-24 13:28:00,
2013-05-24 08:34:00,46.7,38.9,30.42,NE,43,4.0,4.0,74,0.00,,,0.00,Wunderground v.1.15,2013-05-24 13:34:00,
2013-05-24 08:40:00,46.9,40.1,30.42,NE,51,5.0,8.0,77,0.00,,,0.00,Wunderground v.1.15,2013-05-24 13:40:00,
2013-05-24 08:46:00,47.0,39.5,30.42,NE,53,6.0,10.0,75,0.00,,,0.00,Wunderground v.1.15,2013-05-24 13:46:00,
2013-05-24 08:52:00,47.0,39.1,30.42,NE,55,8.0,8.0,74,0.00,,,0.00,Wunderground v.1.15,2013-05-24 13:52:00,
2013-05-24 08:58:00,47.4,39.5,30.42,NE,44,6.0,8.0,74,0.00,,,0.00,Wunderground v.1.15,2013-05-24 13:58:00,
2013-05-24 09:04:00,47.8,37.7,30.42,NE,53,5.0,6.0,68,0.00,,,0.00,Wunderground v.1.15,2013-05-24 14:04:00,
2013-05-24 09:10:00,48.0,39.4,30.42,NE,40,5.0,7.0,72,0.00,,,0.00,Wunderground v.1.15,2013-05-24 14:10:00,
2013-05-24 09:16:00,48.3,40.0,30.43,NE,46,5.0,5.0,73,0.00,,,0.00,Wunderground v.1.15,2013-05-24 14:16:00,
2013-05-24 09:22:00,48.7,38.6,30.43,ENE,61,2.0,7.0,68,0.00,,,0.00,Wunderground v.1.15,2013-05-24 14:22:00,
2013-05-24 09:28:00,48.8,39.4,30.43,ENE,76,4.0,7.0,70,0.00,,,0.00,Wunderground v.1.15,2013-05-24 14:28:00,
2013-05-24 09:34:00,49.0,39.3,30.43,NE,36,5.0,9.0,69,0.00,,,0.00,Wunderground v.1.15,2013-05-24 14:34:00,
2013-05-24 09:40:00,49.0,39.6,30.42,NNE,30,4.0,9.0,70,0.00,,,0.00,Wunderground v.1.15,2013-05-24 14:40:00,
2013-05-24 09:46:00,49.6,39.8,30.42,NE,42,3.0,7.0,69,0.00,,,0.00,Wunderground v.1.15,2013-05-24 14:46:00,
2013-05-24 09:52:00,49.8,40.4,30.42,NE,36,4.0,4.0,70,0.00,,,0.00,Wunderground v.1.15,2013-05-24 14:52:00,
2013-05-24 09:58:00,49.9,40.1,30.42,NE,56,5.0,10.0,69,0.00,,,0.00,Wunderground v.1.15,2013-05-24 14:58:00,
2013-05-24 10:04:00,50.3,40.9,30.42,NE,49,5.0,6.0,70,0.00,,,0.00,Wunderground v.1.15,2013-05-24 15:04:00,
2013-05-24 10:10:00,50.8,39.5,30.41,NE,40,2.0,2.0,65,0.00,,,0.00,Wunderground v.1.15,2013-05-24 15:10:00,
2013-05-24 10:16:00,50.9,41.5,30.41,NE,49,3.0,8.0,70,0.00,,,0.00,Wunderground v.1.15,2013-05-24 15:16:00,
2013-05-24 10:22:00,51.2,41.4,30.41,NE,46,5.0,6.0,69,0.00,,,0.00,Wunderground v.1.15,2013-05-24 15:22:00,
2013-05-24 10:28:00,51.7,42.2,30.41,NE,45,3.0,6.0,70,0.00,,,0.00,Wunderground v.1.15,2013-05-24 15:28:00,
2013-05-24 10:34:00,51.5,40.1,30.41,NE,44,5.0,8.0,65,0.00,,,0.00,Wunderground v.1.15,2013-05-24 15:34:00,
2013-05-24 10:40:00,51.8,41.2,30.41,ENE,63,5.0,12.0,67,0.00,,,0.00,Wunderground v.1.15,2013-05-24 15:40:00,
2013-05-24 10:46:00,52.2,41.6,30.41,NE,40,5.0,12.0,67,0.00,,,0.00,Wunderground v.1.15,2013-05-24 15:46:00,
2013-05-24 10:52:00,52.3,41.3,30.41,NE,42,7.0,7.0,66,0.00,,,0.00,Wunderground v.1.15,2013-05-24 15:52:00,
2013-05-24 10:58:00,52.3,40.5,30.41,ENE,75,6.0,9.0,64,0.00,,,0.00,Wunderground v.1.15,2013-05-24 15:58:00,
2013-05-24 11:04:00,52.5,41.1,30.40,NE,37,7.0,11.0,65,0.00,,,0.00,Wunderground v.1.15,2013-05-24 16:04:00,
2013-05-24 11:10:00,53.0,40.7,30.41,NE,50,6.0,7.0,63,0.00,,,0.00,Wunderground v.1.15,2013-05-24 16:10:00,
2013-05-24 11:16:00,53.3,42.2,30.41,NE,46,6.0,8.0,66,0.00,,,0.00,Wunderground v.1.15,2013-05-24 16:16:00,
2013-05-24 11:22:00,53.9,42.0,30.40,NE,42,3.0,9.0,64,0.00,,,0.00,Wunderground v.1.15,2013-05-24 16:22:00,
2013-05-24 11:28:00,54.3,40.7,30.41,NNW,348,1.0,9.0,60,0.00,,,0.00,Wunderground v.1.15,2013-05-24 16:28:00,
2013-05-24 11:34:00,54.4,42.9,30.41,NE,43,1.0,8.0,65,0.00,,,0.00,Wunderground v.1.15,2013-05-24 16:34:00,
2013-05-24 11:40:00,54.8,45.2,30.41,NE,44,2.0,2.0,70,0.00,,,0.00,Wunderground v.1.15,2013-05-24 16:40:00,
2013-05-24 11:46:00,55.1,43.5,30.41,NE,40,3.0,3.0,65,0.00,,,0.00,Wunderground v.1.15,2013-05-24 16:46:00,
2013-05-24 11:52:00,55.4,43.0,30.41,North,360,2.0,2.0,63,0.00,,,0.00,Wunderground v.1.15,2013-05-24 16:52:00,
2013-05-24 11:58:00,55.8,44.6,30.41,ENE,63,3.0,8.0,66,0.00,,,0.00,Wunderground v.1.15,2013-05-24 16:58:00,
2013-05-24 12:04:00,55.6,43.2,30.41,ENE,71,4.0,4.0,63,0.00,,,0.00,Wunderground v.1.15,2013-05-24 17:04:00,
2013-05-24 12:10:00,55.7,44.1,30.40,NE,49,4.0,4.0,65,0.00,,,0.00,Wunderground v.1.15,2013-05-24 17:10:00,
2013-05-24 12:16:00,56.2,41.2,30.40,East,94,5.0,10.0,57,0.00,,,0.00,Wunderground v.1.15,2013-05-24 17:16:00,
2013-05-24 12:22:00,56.2,42.9,30.40,NNW,342,5.0,5.0,61,0.00,,,0.00,Wunderground v.1.15,2013-05-24 17:22:00,
2013-05-24 12:28:00,56.7,43.4,30.40,NE,52,4.0,9.0,61,0.00,,,0.00,Wunderground v.1.15,2013-05-24 17:28:00,
2013-05-24 12:34:00,56.5,41.4,30.40,NE,50,7.0,9.0,57,0.00,,,0.00,Wunderground v.1.15,2013-05-24 17:34:00,
2013-05-24 12:40:00,56.4,42.7,30.40,NE,42,5.0,5.0,60,0.00,,,0.00,Wunderground v.1.15,2013-05-24 17:40:00,
2013-05-24 12:46:00,56.9,44.4,30.40,NE,42,1.0,5.0,63,0.00,,,0.00,Wunderground v.1.15,2013-05-24 17:46:00,
2013-05-24 12:52:00,57.4,40.9,30.40,East,81,3.0,7.0,54,0.00,,,0.00,Wunderground v.1.15,2013-05-24 17:52:00,
2013-05-24 12:58:00,57.5,42.8,30.39,NE,42,5.0,10.0,58,0.00,,,0.00,Wunderground v.1.15,2013-05-24 17:58:00,
2013-05-24 13:04:00,57.5,41.4,30.39,East,80,5.0,11.0,55,0.00,,,0.00,Wunderground v.1.15,2013-05-24 18:04:00,
2013-05-24 13:10:00,57.9,44.5,30.38,NE,38,3.0,3.0,61,0.00,,,0.00,Wunderground v.1.15,2013-05-24 18:10:00,
2013-05-24 13:16:00,58.4,42.3,30.38,ENE,63,4.0,14.0,55,0.00,,,0.00,Wunderground v.1.15,2013-05-24 18:16:00,
2013-05-24 13:22:00,58.5,42.4,30.38,NE,55,6.0,6.0,55,0.00,,,0.00,Wunderground v.1.15,2013-05-24 18:22:00,
2013-05-24 13:28:00,58.7,43.0,30.38,NE,44,4.0,7.0,56,0.00,,,0.00,Wunderground v.1.15,2013-05-24 18:28:00,
2013-05-24 13:34:00,58.9,41.3,30.38,ENE,76,3.0,5.0,52,0.00,,,0.00,Wunderground v.1.15,2013-05-24 18:34:00,
2013-05-24 13:40:00,58.9,45.0,30.38,ENE,75,3.0,11.0,60,0.00,,,0.00,Wunderground v.1.15,2013-05-24 18:40:00,
2013-05-24 13:46:00,59.3,43.6,30.38,East,80,5.0,11.0,56,0.00,,,0.00,Wunderground v.1.15,2013-05-24 18:46:00,
2013-05-24 13:52:00,59.3,40.1,30.38,ENE,67,6.0,10.0,49,0.00,,,0.00,Wunderground v.1.15,2013-05-24 18:52:00,
2013-05-24 13:58:00,59.3,40.7,30.37,East,101,7.0,10.0,50,0.00,,,0.00,Wunderground v.1.15,2013-05-24 18:58:00,
2013-05-24 14:04:00,59.4,42.3,30.37,East,94,6.0,7.0,53,0.00,,,0.00,Wunderground v.1.15,2013-05-24 19:04:00,
2013-05-24 14:10:00,60.1,42.4,30.36,ENE,70,6.0,6.0,52,0.00,,,0.00,Wunderground v.1.15,2013-05-24 19:10:00,
2013-05-24 14:16:00,59.9,42.7,30.36,ENE,75,8.0,8.0,53,0.00,,,0.00,Wunderground v.1.15,2013-05-24 19:16:00,
2013-05-24 14:22:00,60.2,44.4,30.36,NE,49,5.0,12.0,56,0.00,,,0.00,Wunderground v.1.15,2013-05-24 19:22:00,
2013-05-24 14:28:00,60.6,44.3,30.36,NE,55,6.0,12.0,55,0.00,,,0.00,Wunderground v.1.15,2013-05-24 19:28:00,
2013-05-24 14:34:00,60.7,43.9,30.36,ENE,72,5.0,7.0,54,0.00,,,0.00,Wunderground v.1.15,2013-05-24 19:34:00,
2013-05-24 14:40:00,60.8,44.0,30.36,SSE,150,4.0,4.0,54,0.00,,,0.00,Wunderground v.1.15,2013-05-24 19:40:00,
2013-05-24 14:46:00,61.7,44.4,30.36,SE,134,2.0,4.0,53,0.00,,,0.00,Wunderground v.1.15,2013-05-24 19:46:00,
2013-05-24 14:52:00,61.3,43.5,30.35,SE,128,3.0,7.0,52,0.00,,,0.00,Wunderground v.1.15,2013-05-24 19:52:00,
2013-05-24 14:58:00,61.5,44.2,30.35,East,94,3.0,9.0,53,0.00,,,0.00,Wunderground v.1.15,2013-05-24 19:58:00,
2013-05-24 15:04:00,61.5,42.2,30.35,SE,124,4.0,7.0,49,0.00,,,0.00,Wunderground v.1.15,2013-05-24 20:04:00,
2013-05-24 15:10:00,61.5,43.7,30.35,East,88,4.0,7.0,52,0.00,,,0.00,Wunderground v.1.15,2013-05-24 20:10:00,
2013-05-24 15:16:00,61.6,43.8,30.34,ENE,61,6.0,9.0,52,0.00,,,0.00,Wunderground v.1.15,2013-05-24 20:16:00,
2013-05-24 15:22:00,61.6,41.7,30.34,ENE,75,5.0,8.0,48,0.00,,,0.00,Wunderground v.1.15,2013-05-24 20:22:00,
2013-05-24 15:28:00,61.6,41.7,30.33,East,93,5.0,9.0,48,0.00,,,0.00,Wunderground v.1.15,2013-05-24 20:28:00,
2013-05-24 15:34:00,61.8,43.5,30.33,ENE,75,5.0,9.0,51,0.00,,,0.00,Wunderground v.1.15,2013-05-24 20:34:00,
2013-05-24 15:40:00,62.1,45.2,30.32,East,82,7.0,11.0,54,0.00,,,0.00,Wunderground v.1.15,2013-05-24 20:40:00,
2013-05-24 15:46:00,62.0,44.7,30.32,ESE,106,8.0,11.0,53,0.00,,,0.00,Wunderground v.1.15,2013-05-24 20:46:00,
2013-05-24 15:52:00,62.3,42.3,30.32,East,88,9.0,11.0,48,0.00,,,0.00,Wunderground v.1.15,2013-05-24 20:52:00,
2013-05-24 15:58:00,61.9,42.5,30.32,ESE,115,9.0,11.0,49,0.00,,,0.00,Wunderground v.1.15,2013-05-24 20:58:00,
2013-05-24 16:04:00,62.1,42.7,30.32,ESE,106,5.0,7.0,49,0.00,,,0.00,Wunderground v.1.15,2013-05-24 21:04:00,
2013-05-24 16:10:00,62.3,44.4,30.32,ESE,107,5.0,9.0,52,0.00,,,0.00,Wunderground v.1.15,2013-05-24 21:10:00,
2013-05-24 16:16:00,62.2,42.8,30.31,East,96,7.0,9.0,49,0.00,,,0.00,Wunderground v.1.15,2013-05-24 21:16:00,
2013-05-24 16:22:00,62.2,44.9,30.31,ENE,76,7.0,9.0,53,0.00,,,0.00,Wunderground v.1.15,2013-05-24 21:22:00,
2013-05-24 16:28:00,62.5,44.6,30.31,ESE,102,6.0,9.0,52,0.00,,,0.00,Wunderground v.1.15,2013-05-24 21:28:00,
2013-05-24 16:34:00,62.6,43.2,30.31,East,85,7.0,8.0,49,0.00,,,0.00,Wunderground v.1.15,2013-05-24 21:34:00,
2013-05-24 16:40:00,62.7,40.5,30.31,East,95,6.0,8.0,44,0.00,,,0.00,Wunderground v.1.15,2013-05-24 21:40:00,
2013-05-24 16:46:00,62.7,42.7,30.32,East,94,5.0,7.0,48,0.00,,,0.00,Wunderground v.1.15,2013-05-24 21:46:00,
2013-05-24 16:52:00,62.4,40.8,30.31,East,87,6.0,6.0,45,0.00,,,0.00,Wunderground v.1.15,2013-05-24 21:52:00,
2013-05-24 16:58:00,62.6,42.1,30.31,East,84,4.0,8.0,47,0.00,,,0.00,Wunderground v.1.15,2013-05-24 21:58:00,
2013-05-24 17:04:00,62.6,41.5,30.31,East,86,5.0,8.0,46,0.00,,,0.00,Wunderground v.1.15,2013-05-24 22:04:00,
2013-05-24 17:10:00,63.1,43.1,30.31,East,82,4.0,7.0,48,0.00,,,0.00,Wunderground v.1.15,2013-05-24 22:10:00,
2013-05-24 17:16:00,63.0,40.7,30.31,East,91,5.0,7.0,44,0.00,,,0.00,Wunderground v.1.15,2013-05-24 22:16:00,
2013-05-24 17:22:00,63.1,43.1,30.31,East,90,4.0,6.0,48,0.00,,,0.00,Wunderground v.1.15,2013-05-24 22:22:00,
2013-05-24 17:28:00,63.2,39.1,30.31,SE,131,3.0,6.0,41,0.00,,,0.00,Wunderground v.1.15,2013-05-24 22:28:00,
2013-05-24 17:34:00,63.2,41.5,30.31,SE,125,2.0,3.0,45,0.00,,,0.00,Wunderground v.1.15,2013-05-24 22:34:00,
2013-05-24 17:40:00,63.3,42.2,30.30,ESE,109,2.0,4.0,46,0.00,,,0.00,Wunderground v.1.15,2013-05-24 22:40:00,
2013-05-24 17:46:00,63.3,41.6,30.30,SE,125,3.0,4.0,45,0.00,,,0.00,Wunderground v.1.15,2013-05-24 22:46:00,
2013-05-24 17:52:00,63.4,41.1,30.30,East,90,2.0,3.0,44,0.00,,,0.00,Wunderground v.1.15,2013-05-24 22:52:00,
2013-05-24 17:58:00,63.5,41.8,30.29,SE,130,2.0,3.0,45,0.00,,,0.00,Wunderground v.1.15,2013-05-24 22:58:00,
2013-05-24 18:04:00,63.4,42.2,30.29,East,88,3.0,8.0,46,0.00,,,0.00,Wunderground v.1.15,2013-05-24 23:04:00,
2013-05-24 18:10:00,63.1,42.0,30.28,East,99,4.0,8.0,46,0.00,,,0.00,Wunderground v.1.15,2013-05-24 23:10:00,
2013-05-24 18:16:00,63.2,41.5,30.28,East,85,2.0,7.0,45,0.00,,,0.00,Wunderground v.1.15,2013-05-24 23:16:00,
2013-05-24 18:22:00,63.2,40.9,30.29,ESE,114,2.0,2.0,44,0.00,,,0.00,Wunderground v.1.15,2013-05-24 23:22:00,
2013-05-24 18:28:00,63.2,41.5,30.29,ESE,120,1.0,2.0,45,0.00,,,0.00,Wunderground v.1.15,2013-05-24 23:28:00,
2013-05-24 18:34:00,63.2,40.9,30.28,ESE,112,1.0,4.0,44,0.00,,,0.00,Wunderground v.1.15,2013-05-24 23:34:00,
2013-05-24 18:40:00,62.9,40.6,30.29,ESE,112,2.0,4.0,44,0.00,,,0.00,Wunderground v.1.15,2013-05-24 23:40:00,
2013-05-24 18:46:00,62.8,41.1,30.29,ESE,112,1.0,2.0,45,0.00,,,0.00,Wunderground v.1.15,2013-05-24 23:46:00,
2013-05-24 18:52:00,62.7,41.0,30.29,East,101,1.0,1.0,45,0.00,,,0.00,Wunderground v.1.15,2013-05-24 23:52:00,
2013-05-24 18:58:00,62.7,40.5,30.29,ESE,121,1.0,1.0,44,0.00,,,0.00,Wunderground v.1.15,2013-05-24 23:58:00,
2013-05-24 19:04:00,62.5,41.4,30.29,ESE,119,1.0,2.0,46,0.00,,,0.00,Wunderground v.1.15,2013-05-25 00:04:00,
2013-05-24 19:10:00,62.3,40.1,30.30,ESE,109,1.0,1.0,44,0.00,,,0.00,Wunderground v.1.15,2013-05-25 00:10:00,
2013-05-24 19:16:00,62.1,41.6,30.29,SE,126,1.0,2.0,47,0.00,,,0.00,Wunderground v.1.15,2013-05-25 00:16:00,
2013-05-24 19:22:00,61.7,41.8,30.29,ESE,121,1.0,1.0,48,0.00,,,0.00,Wunderground v.1.15,2013-05-25 00:22:00,
2013-05-24 19:28:00,61.2,42.9,30.29,ESE,112,1.0,4.0,51,0.00,,,0.00,Wunderground v.1.15,2013-05-25 00:28:00,
2013-05-24 19:34:00,60.4,42.2,30.29,East,94,3.0,3.0,51,0.00,,,0.00,Wunderground v.1.15,2013-05-25 00:34:00,
2013-05-24 19:40:00,59.7,42.5,30.29,ESE,110,3.0,3.0,53,0.00,,,0.00,Wunderground v.1.15,2013-05-25 00:40:00,
2013-05-24 19:46:00,59.2,42.6,30.29,ESE,105,2.0,4.0,54,0.00,,,0.00,Wunderground v.1.15,2013-05-25 00:46:00,
2013-05-24 19:52:00,58.5,42.4,30.29,East,96,3.0,7.0,55,0.00,,,0.00,Wunderground v.1.15,2013-05-25 00:52:00,
2013-05-24 19:58:00,58.0,42.4,30.29,ESE,103,4.0,7.0,56,0.00,,,0.00,Wunderground v.1.15,2013-05-25 00:58:00,
2013-05-24 20:04:00,57.6,42.0,30.29,East,99,5.0,8.0,56,0.00,,,0.00,Wunderground v.1.15,2013-05-25 01:04:00,
2013-05-24 20:10:00,57.1,41.1,30.29,East,90,6.0,6.0,55,0.00,,,0.00,Wunderground v.1.15,2013-05-25 01:10:00,
2013-05-24 20:16:00,56.7,41.6,30.29,ESE,109,5.0,6.0,57,0.00,,,0.00,Wunderground v.1.15,2013-05-25 01:16:00,
2013-05-24 20:22:00,56.4,41.3,30.30,East,100,4.0,5.0,57,0.00,,,0.00,Wunderground v.1.15,2013-05-25 01:22:00,
2013-05-24 20:28:00,56.1,41.5,30.30,East,92,3.0,5.0,58,0.00,,,0.00,Wunderground v.1.15,2013-05-25 01:28:00,
2013-05-24 20:34:00,55.7,40.7,30.30,East,101,3.0,5.0,57,0.00,,,0.00,Wunderground v.1.15,2013-05-25 01:34:00,
2013-05-24 20:40:00,55.2,40.2,30.30,East,100,3.0,3.0,57,0.00,,,0.00,Wunderground v.1.15,2013-05-25 01:40:00,
2013-05-24 20:46:00,54.8,40.3,30.31,East,94,3.0,6.0,58,0.00,,,0.00,Wunderground v.1.15,2013-05-25 01:46:00,
2013-05-24 20:52:00,54.4,40.8,30.31,East,98,3.0,3.0,60,0.00,,,0.00,Wunderground v.1.15,2013-05-25 01:52:00,
2013-05-24 20:58:00,54.0,40.8,30.31,East,92,2.0,5.0,61,0.00,,,0.00,Wunderground v.1.15,2013-05-25 01:58:00,
2013-05-24 21:04:00,53.6,40.5,30.31,East,96,3.0,3.0,61,0.00,,,0.00,Wunderground v.1.15,2013-05-25 02:04:00,
2013-05-24 21:10:00,53.2,40.9,30.32,East,90,4.0,4.0,63,0.00,,,0.00,Wunderground v.1.15,2013-05-25 02:10:00,
2013-05-24 21:16:00,53.0,39.9,30.31,East,94,5.0,7.0,61,0.00,,,0.00,Wunderground v.1.15,2013-05-25 02:16:00,
2013-05-24 21:22:00,52.9,39.8,30.32,East,84,5.0,5.0,61,0.00,,,0.00,Wunderground v.1.15,2013-05-25 02:22:00,
2013-05-24 21:28:00,52.7,40.5,30.32,East,88,5.0,8.0,63,0.00,,,0.00,Wunderground v.1.15,2013-05-25 02:28:00,
2013-05-24 21:34:00,52.4,39.3,30.32,East,86,6.0,6.0,61,0.00,,,0.00,Wunderground v.1.15,2013-05-25 02:34:00,
2013-05-24 21:40:00,51.9,40.1,30.33,East,94,6.0,6.0,64,0.00,,,0.00,Wunderground v.1.15,2013-05-25 02:40:00,
2013-05-24 21:46:00,51.4,40.4,30.33,East,90,5.0,6.0,66,0.00,,,0.00,Wunderground v.1.15,2013-05-25 02:46:00,
2013-05-24 21:52:00,51.0,40.4,30.34,East,90,5.0,6.0,67,0.00,,,0.00,Wunderground v.1.15,2013-05-25 02:52:00,
2013-05-24 21:58:00,50.8,39.8,30.34,East,100,4.0,6.0,66,0.00,,,0.00,Wunderground v.1.15,2013-05-25 02:58:00,
2013-05-24 22:04:00,50.6,39.7,30.34,East,88,4.0,6.0,66,0.00,,,0.00,Wunderground v.1.15,2013-05-25 03:04:00,
2013-05-24 22:10:00,50.4,39.5,30.35,East,87,5.0,7.0,66,0.00,,,0.00,Wunderground v.1.15,2013-05-25 03:10:00,
2013-05-24 22:16:00,50.3,39.0,30.35,East,89,5.0,5.0,65,0.00,,,0.00,Wunderground v.1.15,2013-05-25 03:16:00,
2013-05-24 22:22:00,50.1,38.8,30.35,East,96,6.0,6.0,65,0.00,,,0.00,Wunderground v.1.15,2013-05-25 03:22:00,
2013-05-24 22:28:00,49.8,38.1,30.35,East,91,6.0,6.0,64,0.00,,,0.00,Wunderground v.1.15,2013-05-25 03:28:00,
2013-05-24 22:34:00,49.7,38.0,30.35,East,94,4.0,6.0,64,0.00,,,0.00,Wunderground v.1.15,2013-05-25 03:34:00,
2013-05-24 22:40:00,49.4,38.1,30.35,East,93,3.0,6.0,65,0.00,,,0.00,Wunderground v.1.15,2013-05-25 03:40:00,
2013-05-24 22:45:00,49.0,38.1,30.35,East,93,3.0,4.0,66,0.00,,,0.00,Wunderground v.1.15,2013-05-25 03:45:00,
2013-05-24 22:52:00,48.7,37.8,30.36,East,94,3.0,3.0,66,0.00,,,0.00,Wunderground v.1.15,2013-05-25 03:52:00,
2013-05-24 22:58:00,48.5,37.3,30.35,East,98,0.0,3.0,65,0.00,,,0.00,Wunderground v.1.15,2013-05-25 03:58:00,
2013-05-24 23:02:00,48.5,37.3,30.36,East,98,0.0,0.0,65,0.00,,,0.00,Wunderground v.1.15,2013-05-25 04:02:00,
2013-05-24 23:06:00,48.3,37.1,30.35,East,98,0.0,0.0,65,0.00,,,0.00,Wunderground v.1.15,2013-05-25 04:06:00,
2013-05-24 23:10:00,48.3,37.8,30.36,East,97,0.0,0.0,67,0.00,,,0.00,Wunderground v.1.15,2013-05-25 04:10:00,
2013-05-24 23:16:00,48.0,37.2,30.35,East,97,0.0,0.0,66,0.00,,,0.00,Wunderground v.1.15,2013-05-25 04:16:00,
2013-05-24 23:18:00,47.9,37.1,30.35,East,97,0.0,0.0,66,0.00,,,0.00,Wunderground v.1.15,2013-05-25 04:18:00,
2013-05-24 23:24:00,47.7,38.0,30.35,East,97,0.0,0.0,69,0.00,,,0.00,Wunderground v.1.15,2013-05-25 04:24:00,
2013-05-24 23:28:00,47.5,38.2,30.35,East,97,0.0,0.0,70,0.00,,,0.00,Wunderground v.1.15,2013-05-25 04:28:00,
2013-05-24 23:34:00,47.2,37.5,30.35,East,97,0.0,0.0,69,0.00,,,0.00,Wunderground v.1.15,2013-05-25 04:34:00,
2013-05-24 23:40:00,47.2,37.2,30.34,East,97,0.0,0.0,68,0.00,,,0.00,Wunderground v.1.15,2013-05-25 04:40:00,
2013-05-24 23:46:00,47.3,37.3,30.34,East,97,1.0,2.0,68,0.00,,,0.00,Wunderground v.1.15,2013-05-25 04:46:00,
2013-05-24 23:52:00,47.5,37.5,30.34,East,101,1.0,5.0,68,0.00,,,0.00,Wunderground v.1.15,2013-05-25 04:52:00,
2013-05-24 23:58:00,47.5,37.5,30.33,East,98,2.0,5.0,68,0.00,,,0.00,Wunderground v.1.15,2013-05-25 04:58:00,